Time;durP1;ratioP1;P1;durP2;ratioP2;P2;SDS_P1;SDS_P2;PMS_P1;PMS_P2;Temp;Humidity;BMP_temperature;BMP_pressure;BME280_temperature;BME280_humidity;BME280_pressure;Samples;Min_cycle;Max_cycle;Signal;HPM_P1;HPM_P2
2022/08/29 00:00:18;;;;;;;3.05;1.30;;;17.70;99.90;;;;;;4899207;29;20087;-81
2022/08/29 00:02:46;;;;;;;4.97;1.58;;;17.70;99.90;;;;;;4899192;29;20048;-82
2022/08/29 00:05:12;;;;;;;6.45;1.38;;;17.70;99.90;;;;;;4899354;29;20041;-82
2022/08/29 00:07:37;;;;;;;6.82;1.73;;;17.70;99.90;;;;;;4882291;29;20212;-81
2022/08/29 00:10:05;;;;;;;6.43;1.33;;;17.60;99.90;;;;;;4882356;29;20049;-81
2022/08/29 00:12:31;;;;;;;4.95;1.40;;;17.60;99.90;;;;;;4882377;29;20496;-82
2022/08/29 00:14:57;;;;;;;3.55;1.17;;;17.60;99.90;;;;;;4882018;29;20064;-82
2022/08/29 00:17:22;;;;;;;4.97;1.30;;;17.60;99.90;;;;;;4882392;29;20139;-82
2022/08/29 00:19:48;;;;;;;5.82;1.58;;;17.70;99.90;;;;;;4882077;29;20079;-82
2022/08/29 00:22:14;;;;;;;4.60;1.30;;;17.60;99.90;;;;;;4898933;29;20092;-82
2022/08/29 00:24:39;;;;;;;6.07;1.40;;;17.60;99.90;;;;;;4898877;29;20408;-82
2022/08/29 00:27:05;;;;;;;7.22;1.33;;;17.70;99.90;;;;;;4898736;29;20095;-81
2022/08/29 00:29:31;;;;;;;7.82;1.45;;;17.60;99.90;;;;;;4881862;29;20132;-82
2022/08/29 00:31:56;;;;;;;7.78;1.40;;;17.60;99.90;;;;;;4882032;29;20132;-82
2022/08/29 00:34:22;;;;;;;6.93;1.83;;;17.60;99.90;;;;;;4898678;29;20461;-82
2022/08/29 00:36:47;;;;;;;7.45;1.67;;;17.60;99.90;;;;;;4898473;29;20044;-82
2022/08/29 00:39:13;;;;;;;8.35;1.75;;;17.60;99.90;;;;;;4882147;29;20048;-82
2022/08/29 00:41:39;;;;;;;9.00;1.90;;;17.60;99.90;;;;;;4882144;29;20143;-81
2022/08/29 00:44:04;;;;;;;6.80;1.67;;;17.60;99.90;;;;;;4881633;29;20103;-81
2022/08/29 00:46:45;;;;;;;6.57;1.60;;;17.60;99.90;;;;;;4881689;29;20476;-82
2022/08/29 00:49:27;;;;;;;7.55;2.22;;;17.60;99.90;;;;;;4881235;29;20045;-81
2022/08/29 00:51:53;;;;;;;8.70;2.03;;;17.60;99.90;;;;;;4898632;29;20515;-81
2022/08/29 00:54:21;;;;;;;5.75;1.70;;;17.60;99.90;;;;;;4881770;29;20053;-81
2022/08/29 00:56:47;;;;;;;7.45;1.88;;;17.60;99.90;;;;;;4882226;29;20052;-82
2022/08/29 00:59:17;;;;;;;7.50;1.60;;;17.60;99.90;;;;;;4881514;29;20052;-82
2022/08/29 01:01:43;;;;;;;5.05;1.30;;;17.60;99.90;;;;;;4881869;29;20059;-82
2022/08/29 01:04:09;;;;;;;10.93;1.55;;;17.60;99.90;;;;;;4881954;29;20057;-82
2022/08/29 01:06:36;;;;;;;10.20;1.75;;;17.60;99.90;;;;;;4881670;29;20093;-82
2022/08/29 01:09:03;;;;;;;5.75;1.70;;;17.60;99.90;;;;;;4898852;29;20137;-81
2022/08/29 01:14:17;;;;;;;6.40;1.45;;;17.60;99.90;;;;;;4898208;29;20115;-82
2022/08/29 01:16:44;;;;;;;4.63;1.50;;;17.70;99.90;;;;;;4881606;29;20116;-83
2022/08/29 01:19:47;;;;;;;6.82;1.67;;;17.60;99.90;;;;;;4881527;29;20059;-82
2022/08/29 01:22:46;;;;;;;10.73;1.80;;;17.60;99.90;;;;;;4881414;29;20045;-83
2022/08/29 01:25:15;;;;;;;4.85;1.40;;;17.50;99.90;;;;;;4881444;29;20406;-82
2022/08/29 01:27:45;;;;;;;5.43;1.45;;;17.60;99.90;;;;;;4881522;29;20404;-83
2022/08/29 01:30:13;;;;;;;4.82;1.50;;;17.60;99.90;;;;;;4881361;29;20053;-82
2022/08/29 01:32:39;;;;;;;5.95;1.65;;;17.50;99.90;;;;;;4881327;29;20500;-82
2022/08/29 01:35:07;;;;;;;5.70;1.65;;;17.50;99.90;;;;;;4881406;29;20112;-81
2022/08/29 01:37:34;;;;;;;5.88;1.77;;;17.50;99.90;;;;;;4881688;29;20060;-83
2022/08/29 01:40:00;;;;;;;4.93;1.40;;;17.50;99.90;;;;;;4881456;29;20064;-83
2022/08/29 01:42:25;;;;;;;6.43;1.33;;;17.50;99.90;;;;;;4881264;29;20149;-84
2022/08/29 01:44:56;;;;;;;4.88;1.33;;;17.60;99.90;;;;;;4881202;29;20108;-84
2022/08/29 01:47:28;;;;;;;5.03;1.40;;;17.60;99.90;;;;;;4881396;29;20500;-82
2022/08/29 01:49:54;;;;;;;3.72;1.20;;;17.60;99.90;;;;;;4898099;29;20049;-82
2022/08/29 01:52:21;;;;;;;4.95;1.45;;;17.60;99.90;;;;;;4897910;29;20129;-83
2022/08/29 01:54:47;;;;;;;4.60;1.40;;;17.60;99.90;;;;;;4881940;29;20072;-83
2022/08/29 01:57:14;;;;;;;5.20;1.50;;;17.60;99.90;;;;;;4881241;29;20092;-82
2022/08/29 01:59:40;;;;;;;6.75;1.45;;;17.60;99.90;;;;;;4881129;29;20466;-83
2022/08/29 02:02:25;;;;;;;8.57;1.77;;;17.70;99.90;;;;;;4884701;29;20041;-84
2022/08/29 02:04:50;;;;;;;6.57;1.65;;;17.70;99.90;;;;;;4900326;29;20044;-83
2022/08/29 02:07:18;;;;;;;6.60;1.67;;;17.60;99.90;;;;;;4884372;29;20457;-83
2022/08/29 02:09:45;;;;;;;5.82;1.65;;;17.60;99.90;;;;;;4901335;29;20072;-83
2022/08/29 02:12:10;;;;;;;6.50;1.50;;;17.60;99.90;;;;;;4884178;29;20400;-82
2022/08/29 02:14:36;;;;;;;7.00;1.70;;;17.60;99.90;;;;;;4884227;29;20056;-84
2022/08/29 02:17:04;;;;;;;6.57;1.67;;;17.60;99.90;;;;;;4899927;29;20460;-82
2022/08/29 02:19:30;;;;;;;6.32;1.80;;;17.60;99.90;;;;;;4884420;29;20052;-84
2022/08/29 02:21:56;;;;;;;8.50;1.50;;;17.60;99.90;;;;;;4884247;29;20131;-83
2022/08/29 02:24:22;;;;;;;4.72;1.60;;;17.60;99.90;;;;;;4884656;29;20139;-82
2022/08/29 02:26:48;;;;;;;3.92;1.33;;;17.60;99.90;;;;;;4884062;29;20056;-81
2022/08/29 02:29:13;;;;;;;5.20;1.60;;;17.60;99.90;;;;;;4884093;29;20055;-82
2022/08/29 02:31:40;;;;;;;5.85;1.60;;;17.60;99.90;;;;;;4900788;29;20045;-82
2022/08/29 02:34:09;;;;;;;5.13;1.30;;;17.60;99.90;;;;;;4900780;29;20051;-82
2022/08/29 02:36:36;;;;;;;6.90;1.55;;;17.60;99.90;;;;;;4884083;29;20123;-82
2022/08/29 02:39:02;;;;;;;8.40;1.58;;;17.50;99.90;;;;;;4883820;29;20192;-81
2022/08/29 02:41:28;;;;;;;6.35;1.48;;;17.50;99.90;;;;;;4883929;29;20500;-82
2022/08/29 02:43:54;;;;;;;4.65;1.52;;;17.60;99.90;;;;;;4884010;29;20052;-82
2022/08/29 02:46:20;;;;;;;7.70;1.48;;;17.60;99.90;;;;;;4900559;29;20052;-82
2022/08/29 02:48:46;;;;;;;4.13;1.60;;;17.50;99.90;;;;;;4900512;29;20041;-81
2022/08/29 02:51:29;;;;;;;6.88;1.65;;;17.50;99.90;;;;;;4883577;29;20504;-82
2022/08/29 02:53:55;;;;;;;8.77;1.50;;;17.50;99.90;;;;;;4883457;29;20385;-82
2022/08/29 02:56:21;;;;;;;7.05;2.08;;;17.50;99.90;;;;;;4900393;29;20040;-82
2022/08/29 02:58:49;;;;;;;4.90;1.50;;;17.50;99.90;;;;;;4900483;29;20076;-82
2022/08/29 03:01:16;;;;;;;8.07;1.40;;;17.50;99.90;;;;;;4883497;29;20386;-82
2022/08/29 03:03:42;;;;;;;5.68;1.58;;;17.60;99.90;;;;;;4883571;29;20049;-83
2022/08/29 03:06:08;;;;;;;9.93;2.05;;;17.60;99.90;;;;;;4883537;29;20046;-82
2022/08/29 03:08:34;;;;;;;5.93;1.67;;;17.50;99.90;;;;;;4883377;29;20083;-82
2022/08/29 03:11:00;;;;;;;8.60;1.98;;;17.50;99.90;;;;;;4900137;29;20080;-82
2022/08/29 03:13:26;;;;;;;8.60;1.83;;;17.50;99.90;;;;;;4882320;29;20423;-82
2022/08/29 03:15:52;;;;;;;4.90;1.58;;;17.60;99.90;;;;;;4883101;29;20583;-83
2022/08/29 03:18:17;;;;;;;7.82;1.83;;;17.60;99.90;;;;;;4883322;29;20143;-83
2022/08/29 03:20:44;;;;;;;4.85;1.90;;;17.60;99.90;;;;;;4883138;29;20041;-82
2022/08/29 03:23:10;;;;;;;8.18;1.98;;;17.60;99.90;;;;;;4883327;29;20160;-83
2022/08/29 03:25:36;;;;;;;5.45;2.08;;;17.60;99.90;;;;;;4883347;29;20049;-83
2022/08/29 03:28:02;;;;;;;7.43;1.85;;;17.60;99.90;;;;;;4883136;29;20052;-83
2022/08/29 03:30:28;;;;;;;7.50;1.92;;;17.60;99.90;;;;;;4882987;29;20096;-82
2022/08/29 03:32:55;;;;;;;7.47;1.88;;;17.60;99.90;;;;;;4882702;29;20058;-83
2022/08/29 03:35:21;;;;;;;5.20;1.70;;;17.60;99.90;;;;;;4883099;29;20050;-83
2022/08/29 03:37:47;;;;;;;5.32;1.90;;;17.50;99.90;;;;;;4899787;29;20064;-82
2022/08/29 03:40:14;;;;;;;4.22;1.65;;;17.50;99.90;;;;;;4899753;29;20146;-82
2022/08/29 03:42:41;;;;;;;10.43;1.50;;;17.50;99.90;;;;;;4883024;29;20481;-82
2022/08/29 03:45:09;;;;;;;7.43;2.75;;;17.60;99.90;;;;;;4882732;29;20067;-82
2022/08/29 03:47:35;;;;;;;8.30;1.80;;;17.60;99.90;;;;;;4882808;29;20500;-83
2022/08/29 03:50:01;;;;;;;6.63;1.90;;;17.60;99.90;;;;;;4882467;29;20040;-82
2022/08/29 03:52:27;;;;;;;6.88;1.95;;;17.50;99.90;;;;;;4882525;29;20052;-82
2022/08/29 03:54:53;;;;;;;6.97;1.55;;;17.50;99.90;;;;;;4882353;29;20077;-83
2022/08/29 03:57:19;;;;;;;5.75;1.50;;;17.50;99.90;;;;;;4899379;29;20055;-82
2022/08/29 03:59:47;;;;;;;5.18;1.65;;;17.50;99.90;;;;;;4882711;29;20481;-82
2022/08/29 04:02:13;;;;;;;4.32;1.60;;;17.50;99.90;;;;;;4882358;29;20048;-83
2022/08/29 04:07:23;;;;;;;6.10;1.80;;;17.50;99.90;;;;;;4899183;29;20044;-83
2022/08/29 04:09:49;;;;;;;5.85;1.73;;;17.50;99.90;;;;;;4899158;29;20055;-83
2022/08/29 04:12:14;;;;;;;8.35;2.17;;;17.50;99.90;;;;;;4898938;29;20104;-82
2022/08/29 04:14:40;;;;;;;11.27;2.28;;;17.50;99.90;;;;;;4881979;29;20563;-82
2022/08/29 04:17:09;;;;;;;8.23;1.73;;;17.50;99.90;;;;;;4882121;29;20049;-83
2022/08/29 04:19:35;;;;;;;12.70;2.97;;;17.50;99.90;;;;;;4882139;29;20123;-82
2022/08/29 04:22:02;;;;;;;7.30;1.90;;;17.40;99.90;;;;;;4898855;29;20436;-83
2022/08/29 04:24:30;;;;;;;6.65;1.77;;;17.40;99.90;;;;;;4898713;29;20081;-83
2022/08/29 04:26:56;;;;;;;8.98;2.00;;;17.50;99.90;;;;;;4881812;29;20052;-82
2022/08/29 04:29:22;;;;;;;9.18;1.83;;;17.50;99.90;;;;;;4881581;29;20074;-84
2022/08/29 04:31:47;;;;;;;8.50;2.00;;;17.50;99.90;;;;;;4880742;29;20060;-82
2022/08/29 04:34:13;;;;;;;7.00;1.90;;;17.50;99.90;;;;;;4880797;29;20052;-83
2022/08/29 04:36:41;;;;;;;7.05;2.20;;;17.50;99.90;;;;;;4881268;29;20373;-83
2022/08/29 04:39:09;;;;;;;4.70;1.75;;;17.50;99.90;;;;;;4881702;29;20056;-83
2022/08/29 04:41:36;;;;;;;7.50;2.50;;;17.50;99.90;;;;;;4898474;29;20044;-83
2022/08/29 04:44:02;;;;;;;9.45;2.00;;;17.50;99.90;;;;;;4898046;29;20120;-83
2022/08/29 04:46:28;;;;;;;8.75;2.28;;;17.50;99.90;;;;;;4880741;29;20056;-83
2022/08/29 04:48:54;;;;;;;7.05;2.00;;;17.60;99.90;;;;;;4881576;29;20045;-82
2022/08/29 04:51:20;;;;;;;5.75;1.83;;;17.50;99.90;;;;;;4881935;29;20048;-83
2022/08/29 04:53:47;;;;;;;7.03;1.73;;;17.50;99.90;;;;;;4881477;29;20047;-83
2022/08/29 04:56:12;;;;;;;8.82;2.08;;;17.40;99.90;;;;;;4881606;29;20055;-83
2022/08/29 04:58:42;;;;;;;6.72;1.73;;;17.40;99.90;;;;;;4898260;29;20049;-83
2022/08/29 05:01:10;;;;;;;6.45;1.70;;;17.40;99.90;;;;;;4898432;29;20048;-82
2022/08/29 05:03:36;;;;;;;9.32;1.65;;;17.50;99.90;;;;;;4898463;29;20584;-83
2022/08/29 05:06:07;;;;;;;5.35;1.92;;;17.40;99.90;;;;;;4881665;29;20136;-83
2022/08/29 05:08:35;;;;;;;7.18;2.13;;;17.50;99.90;;;;;;4881417;29;20049;-83
2022/08/29 05:11:02;;;;;;;5.55;1.90;;;17.50;99.90;;;;;;4881454;29;20055;-83
2022/08/29 05:13:28;;;;;;;7.18;1.75;;;17.50;99.90;;;;;;4898158;29;20049;-83
2022/08/29 05:15:54;;;;;;;6.03;1.80;;;17.50;99.90;;;;;;4897943;29;20057;-82
2022/08/29 05:18:19;;;;;;;6.47;1.83;;;17.40;99.90;;;;;;4881691;29;20480;-82
2022/08/29 05:20:47;;;;;;;9.52;1.92;;;17.50;99.90;;;;;;4881528;29;20132;-82
2022/08/29 05:23:14;;;;;;;6.28;1.92;;;17.50;99.90;;;;;;4881445;29;20385;-82
2022/08/29 05:25:41;;;;;;;6.55;1.98;;;17.40;99.90;;;;;;4898140;29;20060;-82
2022/08/29 05:28:10;;;;;;;4.07;2.00;;;17.40;99.90;;;;;;4881387;29;20049;-83
2022/08/29 05:30:37;;;;;;;6.38;2.03;;;17.40;99.90;;;;;;4881424;29;20048;-81
2022/08/29 05:33:04;;;;;;;7.53;2.40;;;17.40;99.90;;;;;;4898077;29;20048;-81
2022/08/29 05:35:31;;;;;;;5.50;2.00;;;17.40;99.90;;;;;;4882205;29;20053;-81
2022/08/29 05:37:57;;;;;;;7.03;2.33;;;17.30;99.90;;;;;;4885006;29;20060;-81
2022/08/29 05:40:23;;;;;;;11.63;2.20;;;17.40;99.90;;;;;;4884721;29;20052;-81
2022/08/29 05:42:48;;;;;;;7.63;1.92;;;17.40;99.90;;;;;;4884732;29;20048;-81
2022/08/29 05:45:14;;;;;;;6.85;2.53;;;17.40;99.90;;;;;;4884888;29;20067;-81
2022/08/29 05:47:40;;;;;;;10.02;2.92;;;17.40;99.90;;;;;;4884626;29;20059;-81
2022/08/29 05:50:06;;;;;;;11.00;2.45;;;17.40;99.90;;;;;;4884847;29;20092;-82
2022/08/29 05:52:32;;;;;;;8.27;2.75;;;17.40;99.90;;;;;;4901888;29;20072;-81
2022/08/29 05:54:59;;;;;;;11.68;2.97;;;17.30;99.90;;;;;;4901552;29;20104;-81
2022/08/29 05:57:26;;;;;;;8.90;2.67;;;17.40;99.90;;;;;;4884836;29;20441;-82
2022/08/29 05:59:53;;;;;;;11.13;2.72;;;17.40;99.90;;;;;;4884753;29;20074;-81
2022/08/29 06:02:20;;;;;;;5.53;2.50;;;17.40;99.90;;;;;;4901434;29;20045;-82
2022/08/29 06:04:46;;;;;;;8.93;2.75;;;17.40;99.90;;;;;;4901092;29;20059;-82
2022/08/29 06:07:12;;;;;;;8.65;2.40;;;17.40;99.90;;;;;;4884247;29;20442;-81
2022/08/29 06:09:40;;;;;;;12.95;4.53;;;17.50;99.90;;;;;;4884470;29;20456;-80
2022/08/29 06:12:14;;;;;;;8.95;2.60;;;17.50;99.90;;;;;;4884307;29;20062;-80
2022/08/29 06:14:40;;;;;;;13.40;3.17;;;17.50;99.90;;;;;;4876643;29;20090;-81
2022/08/29 06:17:07;;;;;;;10.00;2.78;;;17.50;99.90;;;;;;4882013;29;20519;-81
2022/08/29 06:19:33;;;;;;;10.73;2.88;;;17.50;99.90;;;;;;4882223;29;20075;-81
2022/08/29 06:22:04;;;;;;;7.80;2.35;;;17.60;99.90;;;;;;4865441;29;20489;-81
2022/08/29 06:24:31;;;;;;;7.15;2.53;;;17.70;99.90;;;;;;4865377;29;20052;-83
2022/08/29 06:26:57;;;;;;;10.98;2.90;;;17.70;99.90;;;;;;4865626;29;20045;-81
2022/08/29 06:29:23;;;;;;;8.25;2.60;;;17.70;99.90;;;;;;4878912;29;20049;-81
2022/08/29 06:31:48;;;;;;;8.60;2.60;;;17.80;99.90;;;;;;4854812;29;20105;-80
2022/08/29 06:34:14;;;;;;;16.35;2.65;;;17.80;99.90;;;;;;4846698;29;20056;-80
2022/08/29 06:36:40;;;;;;;9.50;2.58;;;17.90;99.90;;;;;;4846780;29;20056;-79
2022/08/29 06:39:08;;;;;;;11.15;2.83;;;17.90;99.90;;;;;;4863185;29;20533;-80
2022/08/29 06:41:36;;;;;;;9.27;2.88;;;18.00;99.90;;;;;;4862027;29;20509;-79
2022/08/29 06:44:02;;;;;;;14.00;3.00;;;18.00;99.90;;;;;;4862963;29;20560;-81
2022/08/29 06:46:31;;;;;;;10.55;3.25;;;18.00;99.90;;;;;;4863079;29;20089;-79
2022/08/29 06:48:58;;;;;;;9.55;2.40;;;18.10;99.90;;;;;;4846256;29;20085;-80
2022/08/29 06:51:25;;;;;;;12.77;3.28;;;18.10;99.90;;;;;;4862853;29;20049;-80
2022/08/29 06:53:51;;;;;;;10.45;2.42;;;18.20;99.90;;;;;;4863010;29;20053;-80
2022/08/29 06:56:16;;;;;;;7.55;2.40;;;18.20;99.90;;;;;;4862824;29;20058;-82
2022/08/29 06:58:42;;;;;;;11.15;2.63;;;18.20;99.90;;;;;;4846384;29;20163;-80
2022/08/29 07:01:11;;;;;;;11.02;3.97;;;18.30;99.90;;;;;;4862688;29;20117;-80
2022/08/29 07:03:37;;;;;;;10.07;2.92;;;18.30;99.90;;;;;;4862869;29;20041;-80
2022/08/29 07:06:04;;;;;;;10.00;2.65;;;18.40;99.90;;;;;;4862622;29;20045;-80
2022/08/29 07:08:30;;;;;;;13.27;2.88;;;18.40;99.90;;;;;;4862475;29;20515;-80
2022/08/29 07:10:56;;;;;;;13.30;3.00;;;18.40;99.90;;;;;;4845981;29;20049;-80
2022/08/29 07:13:22;;;;;;;11.50;2.50;;;18.40;99.90;;;;;;4862602;29;20133;-81
2022/08/29 07:15:47;;;;;;;11.80;2.90;;;18.50;99.90;;;;;;4845719;29;20458;-81
2022/08/29 07:18:13;;;;;;;10.68;2.75;;;18.60;99.90;;;;;;4862423;29;20049;-80
2022/08/29 07:20:39;;;;;;;11.75;2.92;;;18.70;99.90;;;;;;4855357;29;20053;-79
2022/08/29 07:23:05;;;;;;;12.77;2.85;;;18.80;99.90;;;;;;4891111;29;20120;-79
2022/08/29 07:25:31;;;;;;;9.63;3.00;;;18.90;99.90;;;;;;4896619;29;20044;-82
2022/08/29 07:27:57;;;;;;;10.10;2.88;;;19.00;99.90;;;;;;4877957;29;20408;-80
2022/08/29 07:30:23;;;;;;;8.05;2.63;;;19.00;99.90;;;;;;4880952;29;20052;-81
2022/08/29 07:32:49;;;;;;;11.35;3.13;;;19.10;99.90;;;;;;4880822;29;20045;-79
2022/08/29 07:35:16;;;;;;;14.02;2.97;;;19.20;99.90;;;;;;4880372;29;20500;-80
2022/08/29 07:37:42;;;;;;;9.13;3.08;;;19.30;99.90;;;;;;4869783;29;20041;-81
2022/08/29 07:40:11;;;;;;;7.88;2.65;;;19.40;99.90;;;;;;4871564;29;20104;-81
2022/08/29 07:42:38;;;;;;;12.68;3.15;;;19.40;99.90;;;;;;4871042;29;20050;-81
2022/08/29 07:45:06;;;;;;;7.70;2.72;;;19.50;99.90;;;;;;4874685;29;20092;-81
2022/08/29 07:47:33;;;;;;;9.88;2.45;;;19.50;99.90;;;;;;4880474;29;20037;-81
2022/08/29 07:50:06;;;;;;;11.35;2.50;;;19.40;99.90;;;;;;4863511;29;20053;-81
2022/08/29 07:52:32;;;;;;;8.95;3.00;;;19.30;99.90;;;;;;4873096;29;20131;-81
2022/08/29 07:54:58;;;;;;;7.53;2.45;;;19.20;99.90;;;;;;4880283;29;20095;-80
2022/08/29 07:57:24;;;;;;;9.75;3.72;;;19.20;99.90;;;;;;4880411;29;20080;-81
2022/08/29 07:59:50;;;;;;;14.82;3.33;;;19.10;99.90;;;;;;4863094;29;20477;-81
2022/08/29 08:02:15;;;;;;;7.07;3.22;;;19.00;99.90;;;;;;4884737;29;20041;-81
2022/08/29 08:04:42;;;;;;;12.90;3.38;;;19.00;99.90;;;;;;4880386;29;20396;-80
2022/08/29 08:07:09;;;;;;;13.18;4.68;;;19.00;99.90;;;;;;4880062;29;20405;-81
2022/08/29 08:09:35;;;;;;;14.63;4.22;;;18.80;99.90;;;;;;4880002;29;20041;-81
2022/08/29 08:12:04;;;;;;;10.45;3.42;;;18.70;99.90;;;;;;4863404;29;20505;-81
2022/08/29 08:14:30;;;;;;;17.27;3.75;;;18.70;99.90;;;;;;4863245;29;20069;-82
2022/08/29 08:16:55;;;;;;;11.15;3.90;;;18.60;99.90;;;;;;4880221;29;20116;-84
2022/08/29 08:19:21;;;;;;;9.45;3.33;;;18.60;99.90;;;;;;4857064;29;20504;-83
2022/08/29 08:21:47;;;;;;;13.35;3.78;;;18.50;99.90;;;;;;4878927;29;20545;-83
2022/08/29 08:24:12;;;;;;;15.75;3.45;;;18.40;99.90;;;;;;4854407;29;20102;-83
2022/08/29 08:26:38;;;;;;;8.82;3.50;;;18.30;99.90;;;;;;4844084;29;20049;-82
2022/08/29 08:29:04;;;;;;;13.68;3.45;;;18.30;99.90;;;;;;4842631;29;20108;-84
2022/08/29 08:31:30;;;;;;;12.10;3.75;;;18.20;99.90;;;;;;4843272;29;20049;-82
2022/08/29 08:33:56;;;;;;;12.27;3.22;;;18.30;99.90;;;;;;4844005;29;20086;-83
2022/08/29 08:36:28;;;;;;;11.45;3.47;;;18.40;99.90;;;;;;4860732;29;20125;-82
2022/08/29 08:38:55;;;;;;;16.85;3.00;;;18.50;99.90;;;;;;4861387;29;20053;-82
2022/08/29 08:41:26;;;;;;;10.00;3.40;;;18.50;99.90;;;;;;4861399;29;20128;-82
2022/08/29 08:43:56;;;;;;;11.45;3.65;;;18.60;99.90;;;;;;4844697;29;20520;-81
2022/08/29 08:46:44;;;;;;;11.65;3.35;;;18.60;99.90;;;;;;4843715;29;20053;-81
2022/08/29 08:49:22;;;;;;;10.55;3.28;;;18.70;99.90;;;;;;4860836;29;20054;-79
2022/08/29 08:51:59;;;;;;;13.82;3.65;;;18.60;99.90;;;;;;4844402;29;20088;-80
2022/08/29 08:54:32;;;;;;;13.45;3.25;;;18.70;99.90;;;;;;4861300;29;20049;-80
2022/08/29 08:57:07;;;;;;;15.85;3.60;;;18.60;99.90;;;;;;4844460;29;20060;-80
2022/08/29 08:59:41;;;;;;;11.30;3.30;;;18.60;99.90;;;;;;4844537;29;20064;-80
2022/08/29 09:02:27;;;;;;;10.77;3.72;;;18.70;99.90;;;;;;4861155;29;20049;-80
2022/08/29 09:05:02;;;;;;;15.98;3.60;;;18.70;99.90;;;;;;4861103;29;20121;-81
2022/08/29 09:08:01;;;;;;;14.50;3.25;;;18.70;99.90;;;;;;4861185;29;20138;-79
2022/08/29 09:10:38;;;;;;;14.27;3.55;;;18.80;99.90;;;;;;4845382;29;20057;-78
2022/08/29 09:13:09;;;;;;;10.38;3.20;;;18.80;99.90;;;;;;4864763;29;20136;-80
2022/08/29 09:15:42;;;;;;;12.50;3.10;;;18.80;99.90;;;;;;4878712;29;20061;-81
2022/08/29 09:18:22;;;;;;;13.32;3.60;;;18.90;99.90;;;;;;4866726;29;20057;-80
2022/08/29 09:20:49;;;;;;;16.85;3.92;;;19.00;99.90;;;;;;4883111;29;20053;-79
2022/08/29 09:23:27;;;;;;;10.32;3.17;;;18.90;99.90;;;;;;4872816;29;20400;-79
2022/08/29 09:25:53;;;;;;;12.30;4.53;;;19.00;99.90;;;;;;4895258;29;20056;-80
2022/08/29 09:28:19;;;;;;;17.58;3.63;;;19.00;99.90;;;;;;4920590;29;20096;-79
2022/08/29 09:31:16;;;;;;;12.70;3.50;;;19.00;99.90;;;;;;4903760;29;20043;-83
2022/08/29 09:33:46;;;;;;;10.32;3.33;;;19.00;99.90;;;;;;4903440;29;20127;-79
2022/08/29 09:36:38;;;;;;;11.93;3.53;;;19.00;99.90;;;;;;4920323;29;20400;-79
2022/08/29 09:39:28;;;;;;;14.50;3.65;;;19.10;99.90;;;;;;4903709;29;20080;-79
2022/08/29 09:41:56;;;;;;;10.93;3.53;;;19.20;99.90;;;;;;4920536;29;20104;-79
2022/08/29 09:44:27;;;;;;;10.32;2.95;;;19.20;99.90;;;;;;4903326;29;20060;-80
2022/08/29 09:47:18;;;;;;;14.27;3.70;;;19.30;99.90;;;;;;4903195;29;20128;-79
2022/08/29 09:50:09;;;;;;;13.05;2.95;;;19.40;99.90;;;;;;4920160;29;20395;-82
2022/08/29 09:52:40;;;;;;;13.10;3.30;;;19.50;99.90;;;;;;4919954;29;20515;-80
2022/08/29 09:55:18;;;;;;;13.35;3.58;;;19.70;99.90;;;;;;4891677;29;20075;-80
2022/08/29 09:57:54;;;;;;;9.02;3.22;;;19.80;99.90;;;;;;4903021;29;20059;-80
2022/08/29 10:00:31;;;;;;;9.30;3.58;;;19.90;99.90;;;;;;4920025;29;20059;-80
2022/08/29 10:03:00;;;;;;;14.88;3.20;;;20.10;99.90;;;;;;4918739;29;20163;-80
2022/08/29 10:05:34;;;;;;;8.85;3.30;;;20.20;99.90;;;;;;4908597;29;20176;-80
2022/08/29 10:08:02;;;;;;;11.82;3.47;;;20.30;99.90;;;;;;4920080;29;20048;-81
2022/08/29 10:10:31;;;;;;;9.55;3.17;;;20.40;99.90;;;;;;4902675;29;20051;-80
2022/08/29 10:13:14;;;;;;;12.68;3.28;;;20.30;99.90;;;;;;4919612;29;20047;-80
2022/08/29 10:15:57;;;;;;;7.82;2.90;;;20.40;99.90;;;;;;4919608;29;20063;-82
2022/08/29 10:18:32;;;;;;;13.60;3.65;;;20.50;99.90;;;;;;4902705;29;20114;-80
2022/08/29 10:21:11;;;;;;;11.20;3.53;;;20.60;99.90;;;;;;4918954;29;20048;-81
2022/08/29 10:23:59;;;;;;;11.18;3.00;;;20.50;99.90;;;;;;4919016;29;20467;-83
2022/08/29 10:26:43;;;;;;;11.57;3.63;;;20.60;99.90;;;;;;4919661;29;20048;-81
2022/08/29 10:29:46;;;;;;;11.75;3.30;;;20.40;99.90;;;;;;4919403;29;20522;-81
2022/08/29 10:32:21;;;;;;;;;;;20.40;99.90;;;;;;4891323;29;20041;-82
2022/08/29 10:35:18;;;;;;;9.35;2.80;;;20.30;99.90;;;;;;4919359;29;19923;-81
2022/08/29 10:38:21;;;;;;;8.05;2.88;;;20.60;99.90;;;;;;4902364;29;20048;-82
2022/08/29 10:41:00;;;;;;;10.68;4.00;;;20.80;99.90;;;;;;4902525;29;20060;-85
2022/08/29 10:43:46;;;;;;;13.00;3.30;;;20.60;99.90;;;;;;4902184;29;20377;-82
2022/08/29 10:46:31;;;;;;;11.88;3.78;;;20.70;99.90;;;;;;4902267;29;20059;-82
2022/08/29 10:49:06;;;;;;;8.20;3.00;;;20.70;99.90;;;;;;4876178;29;20045;-81
2022/08/29 10:52:00;;;;;;;10.10;3.80;;;20.80;99.90;;;;;;4881659;29;20120;-81
2022/08/29 10:54:49;;;;;;;9.82;3.17;;;20.70;99.90;;;;;;4900159;29;20136;-82
2022/08/29 10:57:37;;;;;;;12.02;3.05;;;20.90;99.90;;;;;;4883349;29;20051;-81
2022/08/29 11:00:20;;;;;;;10.02;3.40;;;20.90;99.90;;;;;;4900321;29;20048;-83
2022/08/29 11:03:05;;;;;;;12.25;3.10;;;21.00;99.90;;;;;;4895696;29;20121;-81
2022/08/29 11:05:39;;;;;;;8.18;3.42;;;21.10;99.90;;;;;;4869156;29;20044;-81
2022/08/29 11:08:09;;;;;;;9.00;2.80;;;21.30;99.90;;;;;;4881278;29;20124;-79
2022/08/29 11:10:39;;;;;;;9.93;3.17;;;21.40;99.90;;;;;;4864579;29;20041;-79
2022/08/29 11:13:16;;;;;;;12.98;2.92;;;21.30;99.90;;;;;;4880901;29;20048;-81
2022/08/29 11:15:56;;;;;;;9.88;3.63;;;21.30;99.90;;;;;;4881066;29;20128;-80
2022/08/29 11:18:32;;;;;;;10.13;3.10;;;21.30;99.90;;;;;;4881113;29;20041;-80
2022/08/29 11:21:13;;;;;;;7.82;2.72;;;21.20;99.90;;;;;;4880958;29;20512;-81
2022/08/29 11:23:45;;;;;;;10.15;3.45;;;21.30;99.90;;;;;;4881174;29;20056;-81
2022/08/29 11:26:44;;;;;;;11.20;2.60;;;21.50;99.90;;;;;;4881184;29;20043;-81
2022/08/29 11:29:33;;;;;;;9.30;2.92;;;21.60;99.90;;;;;;4864085;29;20053;-81
2022/08/29 11:32:05;;;;;;;11.60;3.13;;;21.80;99.90;;;;;;4878923;29;20053;-82
2022/08/29 11:34:36;;;;;;;12.27;3.20;;;21.80;99.90;;;;;;4861875;29;20053;-81
2022/08/29 11:37:21;;;;;;;9.57;2.93;;;22.00;99.90;;;;;;4862896;29;20049;-82
2022/08/29 11:40:02;;;;;;;13.30;3.28;;;22.20;99.90;;;;;;4880936;29;20049;-82
2022/08/29 11:42:33;;;;;;;7.30;2.92;;;22.40;99.90;;;;;;4863791;29;20487;-84
2022/08/29 11:45:02;;;;;;;7.22;2.10;;;22.50;99.90;;;;;;4880510;29;20473;-82
2022/08/29 11:47:35;;;;;;;7.38;2.47;;;22.30;99.90;;;;;;4863604;29;20405;-80
2022/08/29 11:50:27;;;;;;;12.02;3.33;;;22.20;99.90;;;;;;4880515;29;20209;-81
2022/08/29 11:52:58;;;;;;;10.82;3.00;;;22.20;99.90;;;;;;4880350;29;20400;-80
2022/08/29 11:55:34;;;;;;;13.98;2.97;;;21.80;99.90;;;;;;4880649;29;20045;-86
2022/08/29 11:58:12;;;;;;;9.43;2.70;;;21.90;99.90;;;;;;4863814;29;20097;-82
2022/08/29 12:00:42;;;;;;;13.02;3.28;;;21.40;99.90;;;;;;4880458;29;20060;-82
2022/08/29 12:03:33;;;;;;;9.23;2.63;;;21.40;99.90;;;;;;4880152;29;20092;-85
2022/08/29 12:06:12;;;;;;;11.65;2.75;;;21.40;99.90;;;;;;4880114;29;20493;-82
2022/08/29 12:08:54;;;;;;;9.30;2.50;;;21.30;99.90;;;;;;4863562;29;20073;-82
2022/08/29 12:11:19;;;;;;;13.57;2.83;;;21.30;99.90;;;;;;4863385;29;20049;-82
2022/08/29 12:13:58;;;;;;;8.38;2.90;;;21.30;99.90;;;;;;4880049;29;20047;-84
2022/08/29 12:16:43;;;;;;;8.02;2.35;;;21.30;99.90;;;;;;4863433;29;20060;-82
2022/08/29 12:19:09;;;;;;;14.52;2.80;;;21.30;99.90;;;;;;4863363;29;20049;-81
2022/08/29 12:21:42;;;;;;;11.95;3.03;;;21.00;99.90;;;;;;4863208;29;20045;-81
2022/08/29 12:24:41;;;;;;;14.85;4.15;;;21.20;99.90;;;;;;4863478;29;20147;-81
2022/08/29 12:27:44;;;;;;;19.65;2.95;;;21.10;99.90;;;;;;4880092;29;20049;-80
2022/08/29 12:30:13;;;;;;;10.35;2.80;;;20.90;99.90;;;;;;4863246;29;20057;-82
2022/08/29 12:33:10;;;;;;;8.52;2.63;;;21.10;99.90;;;;;;4880005;29;20080;-80
2022/08/29 12:35:55;;;;;;;10.13;2.92;;;21.00;99.90;;;;;;4863076;29;20146;-80
2022/08/29 12:38:48;;;;;;;11.02;2.97;;;21.00;99.90;;;;;;4879886;29;20073;-80
2022/08/29 12:41:25;;;;;;;;;;;21.20;99.90;;;;;;4863822;29;20064;-81
2022/08/29 12:43:55;;;;;;;7.32;2.33;;;21.40;99.90;;;;;;4879554;29;19924;-81
2022/08/29 12:46:27;;;;;;;9.25;2.15;;;21.50;99.90;;;;;;4880026;29;20056;-80
2022/08/29 12:49:01;;;;;;;9.57;2.23;;;21.50;99.90;;;;;;4879617;29;20041;-80
2022/08/29 12:51:37;;;;;;;7.70;2.70;;;21.80;99.90;;;;;;4862956;29;20329;-80
2022/08/29 12:54:04;;;;;;;7.78;2.30;;;21.40;99.90;;;;;;4879635;29;20045;-80
2022/08/29 12:56:30;;;;;;;6.07;2.08;;;21.20;99.90;;;;;;4879649;29;20505;-82
2022/08/29 12:58:59;;;;;;;10.93;2.72;;;21.60;99.90;;;;;;4862797;29;20081;-81
2022/08/29 13:01:24;;;;;;;10.05;2.35;;;21.90;99.90;;;;;;4879690;29;20045;-81
2022/08/29 13:04:08;;;;;;;8.85;2.25;;;21.80;99.90;;;;;;4879666;29;20105;-81
2022/08/29 13:06:34;;;;;;;9.10;2.60;;;21.50;99.90;;;;;;4863012;29;20057;-80